Time;durP1;ratioP1;P1;durP2;ratioP2;P2;SDS_P1;SDS_P2;PMS_P1;PMS_P2;Temp;Humidity;BMP_temperature;BMP_pressure;BME280_temperature;BME280_humidity;BME280_pressure;Samples;Min_cycle;Max_cycle;Signal;HPM_P1;HPM_P2
2024/01/01 00:02:19;;;;;;;0.40;0.40;;;;;;;;;;5116180;28;20249;-79
2024/01/01 00:04:45;;;;;;;0.20;0.20;;;;;;;;;;5128087;28;20245;-77
2024/01/01 00:07:12;;;;;;;0.20;0.20;;;;;;;;;;5116126;28;20238;-79
2024/01/01 00:09:39;;;;;;;0.10;0.10;;;;;;;;;;5127774;28;20520;-79
2024/01/01 00:12:08;;;;;;;0.20;0.20;;;;;;;;;;5116132;28;20302;-78
2024/01/01 00:14:34;;;;;;;0.20;0.20;;;;;;;;;;5127955;28;20403;-79
2024/01/01 00:17:01;;;;;;;1.70;1.70;;;;;;;;;;5116177;28;20287;-79
2024/01/01 00:19:28;;;;;;;0.20;0.20;;;;;;;;;;5127869;28;20231;-79
2024/01/01 00:21:54;;;;;;;0.10;0.10;;;;;;;;;;5116067;28;20246;-79
2024/01/01 00:24:20;;;;;;;0.20;0.20;;;;;;;;;;5127256;28;20209;-79
2024/01/01 00:26:48;;;;;;;0.10;0.10;;;;;;;;;;5116075;28;20231;-79
2024/01/01 00:29:15;;;;;;;0.10;0.10;;;;;;;;;;5127616;28;20209;-79
2024/01/01 00:31:42;;;;;;;0.20;0.20;;;;;;;;;;5116032;28;20265;-78
2024/01/01 00:34:09;;;;;;;0.10;0.10;;;;;;;;;;5127061;28;20573;-79
2024/01/01 00:36:36;;;;;;;0.30;0.30;;;;;;;;;;5095139;28;20241;-79
2024/01/01 00:39:02;;;;;;;0.20;0.20;;;;;;;;;;5122369;28;20205;-79
2024/01/01 00:41:29;;;;;;;0.20;0.20;;;;;;;;;;5115977;28;20474;-79
2024/01/01 00:43:56;;;;;;;0.20;0.20;;;;;;;;;;5126837;28;20205;-79
2024/01/01 00:46:23;;;;;;;0.10;0.10;;;;;;;;;;5115804;28;20278;-79
2024/01/01 00:48:50;;;;;;;0.20;0.20;;;;;;;;;;5126686;28;20229;-79
2024/01/01 00:51:17;;;;;;;0.10;0.10;;;;;;;;;;5115262;28;20244;-79
2024/01/01 00:53:43;;;;;;;0.13;0.13;;;;;;;;;;5125910;28;20565;-79
2024/01/01 00:56:09;;;;;;;0.63;0.63;;;;;;;;;;5115583;28;20299;-79
2024/01/01 00:58:36;;;;;;;0.53;0.53;;;;;;;;;;5126538;28;20487;-79
2024/01/01 01:01:04;;;;;;;0.20;0.20;;;;;;;;;;5115869;28;20243;-79
2024/01/01 01:03:30;;;;;;;1.13;1.13;;;;;;;;;;5126090;28;20221;-79
2024/01/01 01:05:57;;;;;;;0.20;0.20;;;;;;;;;;5115535;28;20485;-79
2024/01/01 01:08:23;;;;;;;0.20;0.20;;;;;;;;;;5126352;28;20395;-79
2024/01/01 01:10:53;;;;;;;0.20;0.20;;;;;;;;;;5115974;28;20432;-79
2024/01/01 01:13:19;;;;;;;0.20;0.20;;;;;;;;;;5126306;28;20502;-79
2024/01/01 01:15:45;;;;;;;0.10;0.10;;;;;;;;;;5115816;28;20470;-79
2024/01/01 01:18:13;;;;;;;0.10;0.10;;;;;;;;;;5125841;28;20259;-79
2024/01/01 01:20:39;;;;;;;0.17;0.17;;;;;;;;;;5115465;28;20315;-79
2024/01/01 01:23:06;;;;;;;0.20;0.20;;;;;;;;;;5125607;28;20223;-79
2024/01/01 01:25:32;;;;;;;1.40;1.40;;;;;;;;;;5115749;28;20267;-79
2024/01/01 01:27:59;;;;;;;0.20;0.20;;;;;;;;;;5125977;28;20200;-79
2024/01/01 01:30:25;;;;;;;0.10;0.10;;;;;;;;;;5115592;28;20386;-79
2024/01/01 01:32:51;;;;;;;0.20;0.20;;;;;;;;;;5125734;28;20200;-79
2024/01/01 01:35:19;;;;;;;0.20;0.20;;;;;;;;;;5115453;28;20277;-79
2024/01/01 01:37:45;;;;;;;0.20;0.20;;;;;;;;;;5125638;28;20218;-79
2024/01/01 01:40:12;;;;;;;0.20;0.20;;;;;;;;;;5115782;28;20238;-78
2024/01/01 01:42:39;;;;;;;0.17;0.17;;;;;;;;;;5125260;28;20232;-80
2024/01/01 01:45:05;;;;;;;0.20;0.20;;;;;;;;;;5125900;28;20194;-79
2024/01/01 01:47:32;;;;;;;0.20;0.20;;;;;;;;;;5114380;28;20240;-79
2024/01/01 01:49:59;;;;;;;0.20;0.20;;;;;;;;;;5125687;28;20209;-79
2024/01/01 01:52:27;;;;;;;0.20;0.20;;;;;;;;;;5114217;28;20252;-79
2024/01/01 01:54:55;;;;;;;0.20;0.20;;;;;;;;;;5125766;28;20212;-79
2024/01/01 01:57:21;;;;;;;0.20;0.20;;;;;;;;;;5114163;28;20308;-79
2024/01/01 01:59:48;;;;;;;0.10;0.10;;;;;;;;;;5126070;28;20331;-77
2024/01/01 02:02:15;;;;;;;0.17;0.17;;;;;;;;;;5113839;28;20251;-79
2024/01/01 02:04:42;;;;;;;0.30;0.30;;;;;;;;;;5125374;28;20259;-79
2024/01/01 02:07:08;;;;;;;0.20;0.20;;;;;;;;;;5113772;28;20296;-79
2024/01/01 02:09:36;;;;;;;0.20;0.20;;;;;;;;;;5125493;28;20196;-79
2024/01/01 02:12:02;;;;;;;0.20;0.20;;;;;;;;;;5113908;28;20498;-79
2024/01/01 02:14:29;;;;;;;0.20;0.20;;;;;;;;;;5125687;28;20400;-79
2024/01/01 02:16:55;;;;;;;0.20;0.20;;;;;;;;;;5113719;28;20298;-79
2024/01/01 02:19:22;;;;;;;0.20;0.20;;;;;;;;;;5125512;28;20241;-79
2024/01/01 02:21:50;;;;;;;0.10;0.10;;;;;;;;;;5113844;28;20242;-79
2024/01/01 02:24:17;;;;;;;0.10;0.10;;;;;;;;;;5125012;28;20401;-77
2024/01/01 02:26:44;;;;;;;0.17;0.17;;;;;;;;;;5113714;28;20490;-78
2024/01/01 02:29:11;;;;;;;0.20;0.20;;;;;;;;;;5124876;28;20238;-78
2024/01/01 02:31:37;;;;;;;0.20;0.20;;;;;;;;;;5113829;28;20297;-80
2024/01/01 02:34:06;;;;;;;0.20;0.20;;;;;;;;;;5125253;28;20233;-79
2024/01/01 02:36:36;;;;;;;0.10;0.10;;;;;;;;;;5113625;28;20245;-78
2024/01/01 02:39:03;;;;;;;0.10;0.10;;;;;;;;;;5124895;28;20234;-79
2024/01/01 02:41:31;;;;;;;0.10;0.10;;;;;;;;;;5113542;28;20245;-80
2024/01/01 02:43:57;;;;;;;0.10;0.10;;;;;;;;;;5124951;28;20387;-79
2024/01/01 02:46:24;;;;;;;0.20;0.20;;;;;;;;;;5113583;28;20306;-79
2024/01/01 02:48:50;;;;;;;0.17;0.17;;;;;;;;;;5124537;28;20208;-79
2024/01/01 02:51:17;;;;;;;0.27;0.27;;;;;;;;;;5113522;28;20485;-79
2024/01/01 02:53:43;;;;;;;0.10;0.10;;;;;;;;;;5124410;28;20207;-79
2024/01/01 02:56:15;;;;;;;0.10;0.10;;;;;;;;;;5113485;28;20452;-79
2024/01/01 02:58:43;;;;;;;0.20;0.20;;;;;;;;;;5124365;28;20228;-79
2024/01/01 03:01:09;;;;;;;0.20;0.20;;;;;;;;;;5113273;28;20243;-79
2024/01/01 03:03:36;;;;;;;0.10;0.10;;;;;;;;;;5124173;28;20209;-80
2024/01/01 03:06:02;;;;;;;0.20;0.20;;;;;;;;;;5113383;28;20229;-79
2024/01/01 03:08:29;;;;;;;0.13;0.13;;;;;;;;;;5124279;28;20394;-79
2024/01/01 03:10:55;;;;;;;0.20;0.20;;;;;;;;;;5113418;28;20451;-79
2024/01/01 03:13:22;;;;;;;0.10;0.10;;;;;;;;;;5124225;28;20398;-79
2024/01/01 03:15:49;;;;;;;0.20;0.20;;;;;;;;;;5112721;28;20244;-79
2024/01/01 03:18:17;;;;;;;0.20;0.20;;;;;;;;;;5124041;28;20205;-79
2024/01/01 03:20:43;;;;;;;0.20;0.20;;;;;;;;;;5113592;28;20254;-79
2024/01/01 03:23:10;;;;;;;0.20;0.20;;;;;;;;;;5123694;28;20233;-76
2024/01/01 03:25:36;;;;;;;0.10;0.10;;;;;;;;;;5113690;28;20361;-79
2024/01/01 03:28:03;;;;;;;0.10;0.10;;;;;;;;;;5123468;28;20202;-79
2024/01/01 03:30:29;;;;;;;0.20;0.20;;;;;;;;;;5113602;28;20246;-79
2024/01/01 03:32:57;;;;;;;0.10;0.10;;;;;;;;;;5123510;28;20213;-79
2024/01/01 03:35:23;;;;;;;0.10;0.10;;;;;;;;;;5113265;28;20251;-79
2024/01/01 03:37:50;;;;;;;0.10;0.10;;;;;;;;;;5123676;28;20216;-79
2024/01/01 03:40:16;;;;;;;0.10;0.10;;;;;;;;;;5113446;28;20235;-79
2024/01/01 03:42:43;;;;;;;0.10;0.10;;;;;;;;;;5123139;28;20271;-79
2024/01/01 03:45:09;;;;;;;0.20;0.20;;;;;;;;;;5121506;28;20213;-77
2024/01/01 03:47:36;;;;;;;0.10;0.10;;;;;;;;;;5123080;28;20274;-79
2024/01/01 03:50:06;;;;;;;0.10;0.10;;;;;;;;;;5124616;28;20211;-81
2024/01/01 03:52:32;;;;;;;0.20;0.20;;;;;;;;;;5112978;28;20255;-83
2024/01/01 03:54:59;;;;;;;0.20;0.20;;;;;;;;;;5124184;28;20231;-81
2024/01/01 03:57:25;;;;;;;0.10;0.10;;;;;;;;;;5112729;28;20443;-81
2024/01/01 03:59:52;;;;;;;0.17;0.17;;;;;;;;;;5124445;28;20229;-80
2024/01/01 04:02:18;;;;;;;0.20;0.20;;;;;;;;;;5112004;28;20244;-80
2024/01/01 04:04:45;;;;;;;0.10;0.10;;;;;;;;;;5123973;28;20255;-79
2024/01/01 04:07:13;;;;;;;0.20;0.20;;;;;;;;;;5112120;28;20252;-78
2024/01/01 04:09:39;;;;;;;0.10;0.10;;;;;;;;;;5123970;28;20228;-79
2024/01/01 04:12:06;;;;;;;0.20;0.20;;;;;;;;;;5111942;28;20247;-79
2024/01/01 04:14:32;;;;;;;0.10;0.10;;;;;;;;;;5123928;28;20443;-79
2024/01/01 04:16:59;;;;;;;0.10;0.10;;;;;;;;;;5112174;28;20263;-79
2024/01/01 04:19:25;;;;;;;0.20;0.20;;;;;;;;;;5123731;28;20234;-79
2024/01/01 04:21:51;;;;;;;0.10;0.10;;;;;;;;;;5112166;28;20249;-79
2024/01/01 04:24:19;;;;;;;0.10;0.10;;;;;;;;;;5123978;28;20269;-79
2024/01/01 04:26:46;;;;;;;0.20;0.20;;;;;;;;;;5113528;28;20297;-80
2024/01/01 04:29:12;;;;;;;0.20;0.20;;;;;;;;;;5127711;28;20456;-78
2024/01/01 04:31:38;;;;;;;0.20;0.20;;;;;;;;;;5116016;28;20460;-80
2024/01/01 04:34:05;;;;;;;0.20;0.20;;;;;;;;;;5127221;28;20210;-78
2024/01/01 04:36:31;;;;;;;0.20;0.20;;;;;;;;;;5115999;28;20352;-79
2024/01/01 04:38:59;;;;;;;0.20;0.20;;;;;;;;;;5127399;28;20449;-80
2024/01/01 04:41:27;;;;;;;0.20;0.20;;;;;;;;;;5115981;28;20239;-79
2024/01/01 04:43:53;;;;;;;0.20;0.20;;;;;;;;;;5126977;28;20276;-79
2024/01/01 04:46:19;;;;;;;0.10;0.10;;;;;;;;;;5115861;28;20251;-78
2024/01/01 04:48:46;;;;;;;0.20;0.20;;;;;;;;;;5126809;28;20512;-78
2024/01/01 04:51:12;;;;;;;0.20;0.20;;;;;;;;;;5115647;28;20556;-79
2024/01/01 04:53:38;;;;;;;0.10;0.10;;;;;;;;;;5126714;28;20208;-79
2024/01/01 04:56:05;;;;;;;0.20;0.20;;;;;;;;;;5115819;28;20315;-78
2024/01/01 04:58:33;;;;;;;0.20;0.20;;;;;;;;;;5126525;28;20202;-79
2024/01/01 05:01:00;;;;;;;0.20;0.20;;;;;;;;;;5115873;28;20322;-79
2024/01/01 05:03:26;;;;;;;0.20;0.20;;;;;;;;;;5126080;28;20279;-79
2024/01/01 05:05:53;;;;;;;0.13;0.13;;;;;;;;;;5115571;28;20260;-79
2024/01/01 05:08:19;;;;;;;0.20;0.20;;;;;;;;;;5126083;28;20234;-79
2024/01/01 05:10:53;;;;;;;0.20;0.20;;;;;;;;;;5116001;28;20483;-79
2024/01/01 05:13:20;;;;;;;0.10;0.10;;;;;;;;;;5126475;28;20205;-79
2024/01/01 05:15:48;;;;;;;0.20;0.20;;;;;;;;;;5115538;28;20310;-79
2024/01/01 05:18:15;;;;;;;0.20;0.20;;;;;;;;;;5125861;28;20204;-79
2024/01/01 05:20:41;;;;;;;0.20;0.20;;;;;;;;;;5115794;28;20307;-79
2024/01/01 05:23:08;;;;;;;0.13;0.13;;;;;;;;;;5126014;28;20190;-79
2024/01/01 05:25:34;;;;;;;0.10;0.10;;;;;;;;;;5115474;28;20257;-79
2024/01/01 05:28:00;;;;;;;0.20;0.20;;;;;;;;;;5125470;28;20223;-79
2024/01/01 05:30:30;;;;;;;0.20;0.20;;;;;;;;;;5115372;28;20249;-79
2024/01/01 05:32:58;;;;;;;0.20;0.20;;;;;;;;;;5125730;28;20204;-79
2024/01/01 05:35:25;;;;;;;0.20;0.20;;;;;;;;;;5115316;28;20228;-79
2024/01/01 05:37:51;;;;;;;0.20;0.20;;;;;;;;;;5124788;28;20240;-79
2024/01/01 05:40:17;;;;;;;0.20;0.20;;;;;;;;;;5115401;28;20230;-78
2024/01/01 05:42:44;;;;;;;0.20;0.20;;;;;;;;;;5125486;28;20232;-79
2024/01/01 05:45:10;;;;;;;0.20;0.20;;;;;;;;;;5115267;28;20225;-77
2024/01/01 05:47:37;;;;;;;0.20;0.20;;;;;;;;;;5124729;28;20258;-79
2024/01/01 05:50:05;;;;;;;12.17;11.33;;;;;;;;;;5126212;28;20397;-79
2024/01/01 05:52:31;;;;;;;0.10;0.10;;;;;;;;;;5114301;28;20476;-80
2024/01/01 05:54:57;;;;;;;0.20;0.20;;;;;;;;;;5126011;28;20275;-75
2024/01/01 05:57:24;;;;;;;0.20;0.20;;;;;;;;;;5113923;28;20256;-75
2024/01/01 05:59:50;;;;;;;0.20;0.20;;;;;;;;;;5125999;28;20205;-75
2024/01/01 06:02:17;;;;;;;0.20;0.20;;;;;;;;;;5113702;28;20302;-75
2024/01/01 06:04:43;;;;;;;0.10;0.10;;;;;;;;;;5125808;28;20251;-75
2024/01/01 06:07:11;;;;;;;0.20;0.20;;;;;;;;;;5113725;28;20260;-75
2024/01/01 06:09:38;;;;;;;0.20;0.20;;;;;;;;;;5125737;28;20260;-75
2024/01/01 06:12:06;;;;;;;0.20;0.20;;;;;;;;;;5113771;28;20253;-75
2024/01/01 06:14:32;;;;;;;0.20;0.20;;;;;;;;;;5125645;28;20205;-75
2024/01/01 06:16:59;;;;;;;0.20;0.20;;;;;;;;;;5113667;28;20236;-75
2024/01/01 06:19:25;;;;;;;0.20;0.20;;;;;;;;;;5125197;28;20212;-75
2024/01/01 06:21:52;;;;;;;0.20;0.20;;;;;;;;;;5113600;28;20297;-75
2024/01/01 06:24:19;;;;;;;0.20;0.20;;;;;;;;;;5125313;28;20279;-75
2024/01/01 06:26:46;;;;;;;0.13;0.13;;;;;;;;;;5113716;28;20240;-75
2024/01/01 06:29:12;;;;;;;0.20;0.20;;;;;;;;;;5124918;28;20276;-75
2024/01/01 06:31:38;;;;;;;0.20;0.20;;;;;;;;;;5113522;28;20448;-75
2024/01/01 06:34:05;;;;;;;0.20;0.20;;;;;;;;;;5125041;28;20203;-75
2024/01/01 06:36:31;;;;;;;0.20;0.20;;;;;;;;;;5113603;28;20245;-75
2024/01/01 06:38:57;;;;;;;0.10;0.10;;;;;;;;;;5124588;28;20223;-75
2024/01/01 06:41:25;;;;;;;0.20;0.20;;;;;;;;;;5113455;28;20250;-75
2024/01/01 06:43:51;;;;;;;0.17;0.17;;;;;;;;;;5124781;28;20373;-75
2024/01/01 06:46:18;;;;;;;0.10;0.10;;;;;;;;;;5113633;28;20330;-75
2024/01/01 06:48:44;;;;;;;0.20;0.20;;;;;;;;;;5124190;28;20307;-75
2024/01/01 06:51:11;;;;;;;0.17;0.17;;;;;;;;;;5113387;28;20244;-74
2024/01/01 06:53:37;;;;;;;0.10;0.10;;;;;;;;;;5124441;28;20207;-75
2024/01/01 06:56:04;;;;;;;0.20;0.20;;;;;;;;;;5113474;28;20255;-75
2024/01/01 06:58:32;;;;;;;0.20;0.20;;;;;;;;;;5124252;28;20244;-75
2024/01/01 07:00:59;;;;;;;0.20;0.20;;;;;;;;;;5113339;28;20238;-75
2024/01/01 07:03:25;;;;;;;0.20;0.20;;;;;;;;;;5123766;28;20210;-75
2024/01/01 07:05:51;;;;;;;0.10;0.10;;;;;;;;;;5113398;28;20266;-75
2024/01/01 07:08:18;;;;;;;0.20;0.20;;;;;;;;;;5123908;28;20262;-75
2024/01/01 07:10:48;;;;;;;0.20;0.20;;;;;;;;;;5113735;28;20240;-75
2024/01/01 07:13:14;;;;;;;0.10;0.10;;;;;;;;;;5123550;28;20204;-75
2024/01/01 07:15:42;;;;;;;0.20;0.20;;;;;;;;;;5113538;28;20307;-75
2024/01/01 07:18:09;;;;;;;0.10;0.10;;;;;;;;;;5123373;28;20207;-75
2024/01/01 07:20:36;;;;;;;0.20;0.20;;;;;;;;;;5113471;28;20243;-75
2024/01/01 07:23:02;;;;;;;0.20;0.20;;;;;;;;;;5123614;28;20383;-75
2024/01/01 07:25:28;;;;;;;0.20;0.20;;;;;;;;;;5113757;28;20249;-75
2024/01/01 07:27:55;;;;;;;0.20;0.20;;;;;;;;;;5123108;28;20283;-75
2024/01/01 07:30:21;;;;;;;0.10;0.10;;;;;;;;;;5113439;28;20243;-75
2024/01/01 07:32:49;;;;;;;0.20;0.20;;;;;;;;;;5123138;28;20203;-75
2024/01/01 07:35:15;;;;;;;0.20;0.20;;;;;;;;;;5113597;28;20225;-75
2024/01/01 07:37:41;;;;;;;0.20;0.20;;;;;;;;;;5123083;28;20193;-75
2024/01/01 07:40:08;;;;;;;0.20;0.20;;;;;;;;;;5122886;28;20272;-75
2024/01/01 07:42:35;;;;;;;0.20;0.20;;;;;;;;;;5122486;28;20498;-74
2024/01/01 07:45:01;;;;;;;0.10;0.10;;;;;;;;;;5124003;28;20202;-75
2024/01/01 07:47:28;;;;;;;0.13;0.13;;;;;;;;;;5112402;28;20237;-75
2024/01/01 07:49:56;;;;;;;0.20;0.20;;;;;;;;;;5124022;28;20274;-75
2024/01/01 07:52:22;;;;;;;0.20;0.20;;;;;;;;;;5112228;28;20298;-75
2024/01/01 07:54:55;;;;;;;0.20;0.20;;;;;;;;;;5124152;28;20463;-75
2024/01/01 07:57:21;;;;;;;2.00;2.00;;;;;;;;;;5112096;28;20476;-75
2024/01/01 07:59:47;;;;;;;0.20;0.20;;;;;;;;;;5123941;28;20240;-75
2024/01/01 08:02:14;;;;;;;0.13;0.13;;;;;;;;;;5114068;28;20307;-75
2024/01/01 08:04:40;;;;;;;0.10;0.10;;;;;;;;;;5128193;28;20224;-75
2024/01/01 08:07:08;;;;;;;0.20;0.20;;;;;;;;;;5116167;28;20480;-75
2024/01/01 08:09:34;;;;;;;0.20;0.20;;;;;;;;;;5128109;28;20204;-75
2024/01/01 08:12:00;;;;;;;0.20;0.20;;;;;;;;;;5115951;28;20457;-75
2024/01/01 08:14:27;;;;;;;0.10;0.10;;;;;;;;;;5127573;28;20268;-75
2024/01/01 08:16:53;;;;;;;0.20;0.20;;;;;;;;;;5116399;28;20272;-75
2024/01/01 08:19:20;;;;;;;0.10;0.10;;;;;;;;;;5127449;28;20203;-75
2024/01/01 08:21:47;;;;;;;0.20;0.20;;;;;;;;;;5116215;28;20443;-75
2024/01/01 08:24:14;;;;;;;0.20;0.20;;;;;;;;;;5127560;28;20205;-75
2024/01/01 08:26:41;;;;;;;0.20;0.20;;;;;;;;;;5115976;28;20490;-75
2024/01/01 08:29:07;;;;;;;0.10;0.10;;;;;;;;;;5127451;28;20568;-75
2024/01/01 08:31:33;;;;;;;0.17;0.17;;;;;;;;;;5116063;28;20307;-75
2024/01/01 08:34:00;;;;;;;0.20;0.20;;;;;;;;;;5127335;28;20204;-74
2024/01/01 08:36:27;;;;;;;0.20;0.20;;;;;;;;;;5116112;28;20253;-75
2024/01/01 08:38:54;;;;;;;0.20;0.20;;;;;;;;;;5127273;28;20201;-75
2024/01/01 08:41:22;;;;;;;0.10;0.10;;;;;;;;;;5116060;28;20257;-75
2024/01/01 08:43:56;;;;;;;0.10;0.10;;;;;;;;;;5127018;28;20444;-75
2024/01/01 08:46:23;;;;;;;0.27;0.27;;;;;;;;;;5115846;28;20259;-75
2024/01/01 08:48:49;;;;;;;0.20;0.20;;;;;;;;;;5126561;28;20228;-75
2024/01/01 08:51:15;;;;;;;0.10;0.10;;;;;;;;;;5115818;28;20243;-75
2024/01/01 08:53:42;;;;;;;0.20;0.20;;;;;;;;;;5126513;28;20238;-75
2024/01/01 08:56:09;;;;;;;0.20;0.20;;;;;;;;;;5115781;28;20260;-75
2024/01/01 08:58:37;;;;;;;0.20;0.20;;;;;;;;;;5126231;28;20199;-75
2024/01/01 09:01:03;;;;;;;0.10;0.10;;;;;;;;;;5115742;28;20321;-75
2024/01/01 09:03:30;;;;;;;0.20;0.20;;;;;;;;;;5126318;28;20211;-75
2024/01/01 09:05:57;;;;;;;0.20;0.20;;;;;;;;;;5115950;28;20600;-75
2024/01/01 09:08:24;;;;;;;0.20;0.20;;;;;;;;;;5125858;28;20221;-75
2024/01/01 09:10:53;;;;;;;0.10;0.10;;;;;;;;;;5115663;28;20258;-75
2024/01/01 09:13:20;;;;;;;0.20;0.20;;;;;;;;;;5124950;28;20387;-75
2024/01/01 09:15:47;;;;;;;0.17;0.17;;;;;;;;;;5115607;28;20238;-75
2024/01/01 09:18:14;;;;;;;0.10;0.10;;;;;;;;;;5125976;28;20393;-75
2024/01/01 09:20:41;;;;;;;0.20;0.20;;;;;;;;;;5115610;28;20316;-75
2024/01/01 09:23:07;;;;;;;0.20;0.20;;;;;;;;;;5125839;28;20239;-75
2024/01/01 09:25:34;;;;;;;0.10;0.10;;;;;;;;;;5115794;28;20444;-75
2024/01/01 09:28:01;;;;;;;0.20;0.20;;;;;;;;;;5125782;28;20215;-75
2024/01/01 09:30:27;;;;;;;0.10;0.10;;;;;;;;;;5115363;28;20270;-75
2024/01/01 09:32:55;;;;;;;0.10;0.10;;;;;;;;;;5125215;28;20254;-75
2024/01/01 09:35:21;;;;;;;0.20;0.20;;;;;;;;;;5115450;28;20208;-75
2024/01/01 09:37:52;;;;;;;0.10;0.10;;;;;;;;;;5125230;28;20216;-75
2024/01/01 09:40:19;;;;;;;0.20;0.20;;;;;;;;;;5115685;28;20203;-76
2024/01/01 09:42:46;;;;;;;0.10;0.10;;;;;;;;;;5125550;28;20290;-75
2024/01/01 09:45:13;;;;;;;0.20;0.20;;;;;;;;;;5115365;28;20264;-75
2024/01/01 09:47:40;;;;;;;0.20;0.20;;;;;;;;;;5125072;28;20221;-75
2024/01/01 09:50:08;;;;;;;0.20;0.20;;;;;;;;;;5125877;28;20258;-75
2024/01/01 09:52:35;;;;;;;0.20;0.20;;;;;;;;;;5097371;28;20217;-75
2024/01/01 09:55:01;;;;;;;0.10;0.10;;;;;;;;;;5126045;28;20275;-75
2024/01/01 09:57:27;;;;;;;0.13;0.13;;;;;;;;;;5114138;28;20583;-74
2024/01/01 09:59:54;;;;;;;0.10;0.10;;;;;;;;;;5126036;28;20233;-75
2024/01/01 10:02:23;;;;;;;0.20;0.20;;;;;;;;;;5113898;28;20260;-75
2024/01/01 10:04:49;;;;;;;0.10;0.10;;;;;;;;;;5125868;28;20294;-75
2024/01/01 10:07:26;;;;;;;0.10;0.10;;;;;;;;;;5112717;28;20309;-75
2024/01/01 10:09:53;;;;;;;0.10;0.10;;;;;;;;;;5125574;28;20195;-75
2024/01/01 10:12:22;;;;;;;0.10;0.10;;;;;;;;;;5113733;28;20320;-75
2024/01/01 10:14:48;;;;;;;0.13;0.13;;;;;;;;;;5125673;28;20216;-75
2024/01/01 10:17:17;;;;;;;0.20;0.20;;;;;;;;;;5113687;28;20248;-75
2024/01/01 10:19:48;;;;;;;0.10;0.10;;;;;;;;;;5125651;28;20203;-75
2024/01/01 10:22:14;;;;;;;0.10;0.10;;;;;;;;;;5113617;28;20496;-74
2024/01/01 10:24:42;;;;;;;0.10;0.10;;;;;;;;;;5124878;28;20269;-75
2024/01/01 10:27:09;;;;;;;0.10;0.10;;;;;;;;;;5113514;28;20490;-75
2024/01/01 10:29:36;;;;;;;0.10;0.10;;;;;;;;;;5124985;28;20249;-75
2024/01/01 10:32:02;;;;;;;0.10;0.10;;;;;;;;;;5113430;28;20240;-75
2024/01/01 10:34:30;;;;;;;0.20;0.20;;;;;;;;;;5124994;28;20202;-74
2024/01/01 10:36:56;;;;;;;0.10;0.10;;;;;;;;;;5113587;28;20283;-75
2024/01/01 10:39:23;;;;;;;0.10;0.10;;;;;;;;;;5124703;28;20199;-74
2024/01/01 10:41:51;;;;;;;0.20;0.20;;;;;;;;;;5113641;28;20260;-75
2024/01/01 10:44:17;;;;;;;0.20;0.20;;;;;;;;;;5124522;28;20240;-75
2024/01/01 10:46:45;;;;;;;0.20;0.20;;;;;;;;;;5113359;28;20304;-75
2024/01/01 10:49:15;;;;;;;0.20;0.20;;;;;;;;;;5124599;28;20293;-75
2024/01/01 10:51:47;;;;;;;0.10;0.10;;;;;;;;;;5113426;28;20245;-75
2024/01/01 10:54:32;;;;;;;0.10;0.10;;;;;;;;;;5124746;28;20366;-74
2024/01/01 10:57:07;;;;;;;0.30;0.30;;;;;;;;;;5102677;28;20308;-75
2024/01/01 10:59:37;;;;;;;0.20;0.20;;;;;;;;;;5124832;28;20257;-75
2024/01/01 11:02:04;;;;;;;0.20;0.20;;;;;;;;;;5112938;28;20261;-75
2024/01/01 11:04:31;;;;;;;0.20;0.20;;;;;;;;;;5124559;28;20541;-75
2024/01/01 11:06:57;;;;;;;0.10;0.10;;;;;;;;;;5113021;28;20272;-75
2024/01/01 11:09:30;;;;;;;0.10;0.10;;;;;;;;;;5124080;28;20226;-74
2024/01/01 11:11:57;;;;;;;0.20;0.20;;;;;;;;;;5112967;28;20240;-75
2024/01/01 11:14:25;;;;;;;0.10;0.10;;;;;;;;;;5124044;28;20202;-75
2024/01/01 11:16:52;;;;;;;0.10;0.10;;;;;;;;;;5112845;28;20253;-75
2024/01/01 11:19:33;;;;;;;0.10;0.10;;;;;;;;;;5124316;28;20265;-75
2024/01/01 11:22:20;;;;;;;0.10;0.10;;;;;;;;;;5112753;28;20256;-75
2024/01/01 11:24:47;;;;;;;0.17;0.17;;;;;;;;;;5124095;28;20451;-75
2024/01/01 11:27:23;;;;;;;0.10;0.10;;;;;;;;;;5112459;28;20387;-75
2024/01/01 11:29:51;;;;;;;0.20;0.20;;;;;;;;;;5124385;28;20232;-75
2024/01/01 11:32:18;;;;;;;0.20;0.20;;;;;;;;;;5112458;28;20300;-75
2024/01/01 11:34:44;;;;;;;0.13;0.13;;;;;;;;;;5123972;28;20202;-75
2024/01/01 11:37:19;;;;;;;0.10;0.10;;;;;;;;;;5111632;28;20305;-75
2024/01/01 11:39:45;;;;;;;0.10;0.10;;;;;;;;;;5124325;28;20187;-75
2024/01/01 11:42:18;;;;;;;0.10;0.10;;;;;;;;;;5112430;28;20482;-75
2024/01/01 11:44:44;;;;;;;0.10;0.10;;;;;;;;;;5124026;28;20192;-75
2024/01/01 11:47:17;;;;;;;0.10;0.10;;;;;;;;;;5112396;28;20298;-75
2024/01/01 11:49:44;;;;;;;0.20;0.20;;;;;;;;;;5123852;28;20217;-75
2024/01/01 11:52:11;;;;;;;0.20;0.20;;;;;;;;;;5112317;28;20238;-74
2024/01/01 11:54:38;;;;;;;0.10;0.10;;;;;;;;;;5124057;28;20209;-75
2024/01/01 11:57:05;;;;;;;0.20;0.20;;;;;;;;;;5112358;28;20301;-75
2024/01/01 11:59:31;;;;;;;0.10;0.10;;;;;;;;;;5124035;28;20262;-75
2024/01/01 12:01:57;;;;;;;0.20;0.20;;;;;;;;;;5112492;28;20589;-75
2024/01/01 12:04:25;;;;;;;0.13;0.13;;;;;;;;;;5123449;28;20451;-74
2024/01/01 12:06:52;;;;;;;0.10;0.10;;;;;;;;;;5112439;28;20305;-75
2024/01/01 12:09:20;;;;;;;0.10;0.10;;;;;;;;;;5123702;28;20229;-75
2024/01/01 12:11:47;;;;;;;0.10;0.10;;;;;;;;;;5112373;28;20500;-75
2024/01/01 12:14:13;;;;;;;0.10;0.10;;;;;;;;;;5123645;28;20202;-75
2024/01/01 12:16:42;;;;;;;0.10;0.10;;;;;;;;;;5112412;28;20238;-75
2024/01/01 12:19:09;;;;;;;0.10;0.10;;;;;;;;;;5123319;28;20196;-74
2024/01/01 12:21:41;;;;;;;0.10;0.10;;;;;;;;;;5112455;28;20301;-76
2024/01/01 12:24:08;;;;;;;0.10;0.10;;;;;;;;;;5123234;28;20211;-75
2024/01/01 12:26:34;;;;;;;0.10;0.10;;;;;;;;;;5112109;28;20265;-75
2024/01/01 12:29:11;;;;;;;0.20;0.20;;;;;;;;;;5123143;28;20222;-75
2024/01/01 12:31:37;;;;;;;0.10;0.10;;;;;;;;;;5112421;28;20246;-75
2024/01/01 12:34:05;;;;;;;0.10;0.10;;;;;;;;;;5123480;28;20274;-75
2024/01/01 12:36:31;;;;;;;0.17;0.17;;;;;;;;;;5112128;28;20314;-75
2024/01/01 12:38:59;;;;;;;0.10;0.10;;;;;;;;;;5123133;28;20446;-75
2024/01/01 12:41:25;;;;;;;0.10;0.10;;;;;;;;;;5112285;28;20247;-75
2024/01/01 12:43:52;;;;;;;0.10;0.10;;;;;;;;;;5123587;28;20453;-75
2024/01/01 12:46:18;;;;;;;0.10;0.10;;;;;;;;;;5112289;28;20518;-75
2024/01/01 12:48:45;;;;;;;0.20;0.20;;;;;;;;;;5125921;28;20248;-75
2024/01/01 12:51:11;;;;;;;0.10;0.10;;;;;;;;;;5115909;28;20239;-75
2024/01/01 12:53:38;;;;;;;0.10;0.10;;;;;;;;;;5126744;28;20240;-75
2024/01/01 12:56:06;;;;;;;0.10;0.10;;;;;;;;;;5115944;28;20238;-74
2024/01/01 12:58:32;;;;;;;0.10;0.10;;;;;;;;;;5126579;28;20238;-75
2024/01/01 13:00:59;;;;;;;0.10;0.10;;;;;;;;;;5116084;28;20302;-75
2024/01/01 13:03:25;;;;;;;0.10;0.10;;;;;;;;;;5125985;28;20450;-75
2024/01/01 13:05:51;;;;;;;0.10;0.10;;;;;;;;;;5115600;28;20301;-75
2024/01/01 13:08:18;;;;;;;0.10;0.10;;;;;;;;;;5126280;28;20210;-75
2024/01/01 13:10:49;;;;;;;0.20;0.20;;;;;;;;;;5115861;28;20248;-75
2024/01/01 13:13:16;;;;;;;0.10;0.10;;;;;;;;;;5126204;28;20445;-74
2024/01/01 13:15:43;;;;;;;0.10;0.10;;;;;;;;;;5115949;28;20309;-75
2024/01/01 13:18:10;;;;;;;0.10;0.10;;;;;;;;;;5125797;28;20206;-75
2024/01/01 13:20:36;;;;;;;0.10;0.10;;;;;;;;;;5115708;28;20248;-75
2024/01/01 13:23:03;;;;;;;0.10;0.10;;;;;;;;;;5125641;28;20261;-76
2024/01/01 13:25:30;;;;;;;0.10;0.10;;;;;;;;;;5115667;28;20232;-74
2024/01/01 13:27:56;;;;;;;0.10;0.10;;;;;;;;;;5125800;28;20421;-75
2024/01/01 13:30:24;;;;;;;0.10;0.10;;;;;;;;;;5115750;28;20261;-75
2024/01/01 13:32:51;;;;;;;0.10;0.10;;;;;;;;;;5125831;28;20186;-75
2024/01/01 13:35:17;;;;;;;0.20;0.20;;;;;;;;;;5115362;28;20245;-75
2024/01/01 13:37:44;;;;;;;0.10;0.10;;;;;;;;;;5125251;28;20231;-75
2024/01/01 13:40:11;;;;;;;0.10;0.10;;;;;;;;;;5115364;28;20274;-75
2024/01/01 13:42:37;;;;;;;0.20;0.20;;;;;;;;;;5125352;28;20236;-75
2024/01/01 13:45:04;;;;;;;0.10;0.10;;;;;;;;;;5125928;28;20236;-75
2024/01/01 13:47:32;;;;;;;0.10;0.10;;;;;;;;;;5114432;28;20248;-75
2024/01/01 13:49:58;;;;;;;0.10;0.10;;;;;;;;;;5125583;28;20244;-75
2024/01/01 13:52:24;;;;;;;0.10;0.10;;;;;;;;;;5114256;28;20305;-75
2024/01/01 13:54:51;;;;;;;0.10;0.10;;;;;;;;;;5125701;28;20202;-74
2024/01/01 13:57:17;;;;;;;0.10;0.10;;;;;;;;;;5114218;28;20305;-74
2024/01/01 13:59:44;;;;;;;0.13;0.13;;;;;;;;;;5125007;28;20265;-74
2024/01/01 14:02:10;;;;;;;0.10;0.10;;;;;;;;;;5113980;28;20301;-73
2024/01/01 14:04:40;;;;;;;0.10;0.10;;;;;;;;;;5125510;28;20221;-75
2024/01/01 14:07:06;;;;;;;0.10;0.10;;;;;;;;;;5114130;28;20303;-75
2024/01/01 14:09:35;;;;;;;0.10;0.10;;;;;;;;;;5125273;28;20297;-75
2024/01/01 14:12:03;;;;;;;0.20;0.20;;;;;;;;;;5113987;28;20255;-74
2024/01/01 14:14:29;;;;;;;0.10;0.10;;;;;;;;;;5125460;28;20282;-74
2024/01/01 14:16:56;;;;;;;0.20;0.20;;;;;;;;;;5114009;28;20234;-74
2024/01/01 14:19:23;;;;;;;0.10;0.10;;;;;;;;;;5125394;28;20235;-75
2024/01/01 14:21:51;;;;;;;0.17;0.17;;;;;;;;;;5113915;28;20419;-75
2024/01/01 14:24:18;;;;;;;0.20;0.20;;;;;;;;;;5125088;28;20201;-74
2024/01/01 14:26:46;;;;;;;0.10;0.10;;;;;;;;;;5113837;28;20244;-74
2024/01/01 14:29:13;;;;;;;0.17;0.17;;;;;;;;;;5124796;28;20267;-74
2024/01/01 14:31:40;;;;;;;0.20;0.20;;;;;;;;;;5113962;28;20251;-73
2024/01/01 14:34:06;;;;;;;0.10;0.10;;;;;;;;;;5125010;28;20436;-74
2024/01/01 14:36:36;;;;;;;0.10;0.10;;;;;;;;;;5113964;28;20264;-74
2024/01/01 14:39:04;;;;;;;0.10;0.10;;;;;;;;;;5124968;28;20203;-74
2024/01/01 14:41:34;;;;;;;0.10;0.10;;;;;;;;;;5113757;28;20247;-74
2024/01/01 14:44:01;;;;;;;0.10;0.10;;;;;;;;;;5124551;28;20192;-74